Flight Track Log - Related Links

Times and Time Zones

All times are in EST time to prevent confusion due to time zone crossing. See the SKW5655 flight status page for this flight to view local times or setup timezone preferences in your user account.

Time Position Orientation Groundspeed Altitude Reporting Facility
EST Latitude Longitude Course Direction KTS MPH feet Rate Location/Type
Mon 10:52:49 AM 37.5470 -122.3127 344° North  Level FlightAware Approximate
Mon 10:54:08 AM 37.7000 -122.3667 270° West 220 253 3,500  Level Northern Cal TRACON
Mon 10:55:02 AM 37.7000 -122.4500 180° South 273 314 6,200 3,333 Climbing Northern Cal TRACON
Mon 10:55:56 AM 37.6333 -122.4500 155° Southeast 283 326 9,500 2,947 Climbing Northern Cal TRACON
Mon 10:56:56 AM 37.5500 -122.4000 140° Southeast 310 357 11,800 2,123 Climbing Northern Cal TRACON
Mon 10:59:11 AM 37.3953 -122.2389 140° Southeast 348 400 16,400 1,877 Climbing Oakland Center
Mon 11:00:11 AM 37.3167 -122.1564 139° Southeast 353 406 17,900 4,300 Climbing Oakland Center
Mon 11:01:11 AM 37.2364 -122.0692 139° Southeast 368 423 25,000 1,400 Climbing Oakland Center
Mon 11:02:11 AM 37.1517 -121.9767 141° Southeast 389 448 20,700 -1,500 Descending Oakland Center
Mon 11:03:11 AM 37.0647 -121.8869 140° Southeast 404 465 22,000 1,250 Climbing Oakland Center
Mon 11:04:11 AM 36.9758 -121.7925 140° Southeast 404 465 23,200 1,100 Climbing Oakland Center
Mon 11:05:11 AM 36.8867 -121.6981 140° Southeast 414 476 24,200 850 Climbing Oakland Center
Mon 11:06:11 AM 36.7953 -121.6039 139° Southeast 420 483 24,900 400 Climbing Oakland Center
Mon 11:07:11 AM 36.7019 -121.5044 140° Southeast 426 490 25,000 50 Climbing Oakland Center
Mon 11:08:11 AM 36.6022 -121.4003 140° Southeast 451 519 25,000  Level Oakland Center
Mon 11:09:11 AM 36.5003 -121.2939 140° Southeast 466 536 25,000  Level Oakland Center
Mon 11:10:11 AM 36.3983 -121.1878 141° Southeast 479 551 25,000  Level Oakland Center
Mon 11:11:11 AM 36.2942 -121.0817 140° Southeast 484 557 25,000  Level Oakland Center
Mon 11:12:48 AM 36.1303 -120.9139 140° Southeast 480 552 25,000  Level Los Angeles Center
Mon 11:13:48 AM 36.0278 -120.8078 140° Southeast 480 552 25,000  Level Los Angeles Center
Mon 11:14:47 AM 35.9275 -120.7044 140° Southeast 480 552 25,000  Level Los Angeles Center
Mon 11:15:47 AM 35.8250 -120.5989 141° Southeast 480 552 25,000  Level Los Angeles Center
Mon 11:16:48 AM 35.7225 -120.4958 142° Southeast 480 552 25,000  Level Los Angeles Center
Mon 11:17:48 AM 35.6214 -120.3986 141° Southeast 480 552 25,000  Level Los Angeles Center
Mon 11:18:47 AM 35.5206 -120.2989 140° Southeast 475 547 25,000 -303 Level Los Angeles Center
Mon 11:19:47 AM 35.4197 -120.1967 139° Southeast 475 547 24,400 -500 Descending Los Angeles Center
Mon 11:20:47 AM 35.3108 -120.0819 141° Southeast 475 547 24,000 -198 Descending Los Angeles Center
Mon 11:21:48 AM 35.2097 -119.9803 141° Southeast 475 547 24,000  Level Los Angeles Center
Mon 11:22:47 AM 35.1086 -119.8817 134° Southeast 475 547 24,000  Level Los Angeles Center
Mon 11:23:47 AM 35.0181 -119.7683 132° Southeast 475 547 24,000 -50 Level Los Angeles Center
Mon 11:24:48 AM 34.9297 -119.6481 132° Southeast 469 540 23,900 -1,100 Descending Los Angeles Center
Mon 11:25:47 AM 34.8456 -119.5331 133° Southeast 469 540 21,800 -2,521 Descending Los Angeles Center
Mon 11:26:47 AM 34.7650 -119.4286 131° Southeast 443 510 18,900 -2,850 Descending Los Angeles Center
Mon 11:27:47 AM 34.6944 -119.3297 133° Southeast 410 472 16,100 -2,450 Descending Los Angeles Center
Mon 11:28:47 AM 34.6258 -119.2414 135° Southeast 378 435 14,000 -2,300 Descending Los Angeles Center
Mon 11:29:47 AM 34.5631 -119.1658 131° Southeast 342 394 11,500 -1,500 Descending Los Angeles Center
Mon 11:30:47 AM 34.5125 -119.0958 131° Southeast 327 376 11,000 -250 Descending Los Angeles Center
Mon 11:31:47 AM 34.4581 -119.0208 134° Southeast 305 351 11,000 -600 Level Los Angeles Center
Mon 11:32:47 AM 34.4014 -118.9508 121° Southeast 294 338 9,800 -1,250 Descending Los Angeles Center
Mon 11:33:47 AM 34.3614 -118.8692 114° Southeast 289 333 8,500 -1,300 Descending Los Angeles Center
Mon 11:34:47 AM 34.3300 -118.7825 113° Southeast 283 326 7,200 -1,250 Descending Los Angeles Center
Mon 11:35:47 AM 34.3025 -118.7036 111° Southeast 269 310 6,000 -1,100 Descending Los Angeles Center
Mon 11:36:47 AM 34.2769 -118.6250 113° Southeast 246 283 5,000 -950 Descending Los Angeles Center
Mon 11:37:47 AM 34.2533 -118.5564 121° Southeast 229 264 4,100 -900 Descending Los Angeles Center
Mon 11:38:47 AM 34.2253 -118.5003 121° Southeast 212 244 3,200 -900 Descending Los Angeles Center

Login

Don't have an account? Register now (free) for customized features, flight alerts, and more!